Time;durP1;ratioP1;P1;durP2;ratioP2;P2;SDS_P1;SDS_P2;PMS_P1;PMS_P2;Temp;Humidity;BMP_temperature;BMP_pressure;BME280_temperature;BME280_humidity;BME280_pressure;Samples;Min_cycle;Max_cycle;Signal;HPM_P1;HPM_P2
2023/07/14 00:02:12;;;;;;;8.60;6.97;;;;;;;-147.65;100.00;57646.63;10328096;28;20054;-80
2023/07/14 00:07:13;;;;;;;11.52;7.60;;;;;;;-147.65;100.00;57646.63;10318239;28;20038;-80
2023/07/14 00:12:14;;;;;;;10.50;6.75;;;;;;;-147.65;100.00;57646.63;10346617;28;20049;-79
2023/07/14 00:17:14;;;;;;;13.55;8.55;;;;;;;-147.65;100.00;57646.63;10327384;28;20129;-80
2023/07/14 00:22:15;;;;;;;12.68;8.65;;;;;;;-147.65;100.00;57646.63;10324049;28;20060;-80
2023/07/14 00:27:20;;;;;;;10.15;7.63;;;;;;;-147.65;100.00;57646.63;10320956;28;20038;-80
2023/07/14 00:32:22;;;;;;;13.13;7.63;;;;;;;-147.65;100.00;57646.63;10303577;28;20038;-80
2023/07/14 00:37:22;;;;;;;10.95;8.63;;;;;;;-147.65;100.00;57646.63;10301557;28;20050;-80
2023/07/14 00:42:23;;;;;;;10.77;8.48;;;;;;;-147.65;100.00;57646.63;10352899;28;20038;-80
2023/07/14 00:47:29;;;;;;;13.68;10.13;;;;;;;-147.65;100.00;57646.63;10338723;28;20046;-80
2023/07/14 00:52:32;;;;;;;15.43;10.05;;;;;;;-147.65;100.00;57646.63;10312018;28;20046;-80
2023/07/14 00:57:34;;;;;;;13.93;10.30;;;;;;;-147.65;100.00;57646.63;10319190;28;20062;-80
2023/07/14 01:02:35;;;;;;;11.13;9.18;;;;;;;-147.65;100.00;57646.63;10338306;28;20499;-80
2023/07/14 01:07:39;;;;;;;14.07;9.70;;;;;;;-147.65;100.00;57646.63;10323776;28;20031;-81
2023/07/14 01:12:41;;;;;;;14.73;9.50;;;;;;;-147.65;100.00;57646.63;10322572;28;20061;-79
2023/07/14 01:17:41;;;;;;;16.55;8.95;;;;;;;-147.65;100.00;57646.63;10308169;28;20077;-80
2023/07/14 01:23:21;;;;;;;12.20;8.90;;;;;;;-147.65;100.00;57646.63;10325639;28;20057;-80
2023/07/14 01:28:22;;;;;;;13.48;10.32;;;;;;;-147.65;100.00;57646.63;10318635;28;20113;-81
2023/07/14 01:33:23;;;;;;;12.48;8.32;;;;;;;-147.65;100.00;57646.63;10364508;28;20077;-81
2023/07/14 01:38:23;;;;;;;11.65;8.48;;;;;;;-147.65;100.00;57646.63;10325810;28;20446;-80
2023/07/14 01:43:24;;;;;;;11.95;7.18;;;;;;;-147.65;100.00;57646.63;10324732;28;20046;-81
2023/07/14 01:48:27;;;;;;;13.63;8.93;;;;;;;-147.65;100.00;57646.63;10269203;28;20043;-81
2023/07/14 01:54:06;;;;;;;11.57;7.90;;;;;;;-147.65;100.00;57646.63;10309031;28;20065;-80
2023/07/14 01:59:18;;;;;;;12.00;7.65;;;;;;;-147.65;100.00;57646.63;10325356;28;20561;-80
2023/07/14 02:04:21;;;;;;;11.10;7.80;;;;;;;-147.65;100.00;57646.63;10343135;28;20054;-80
2023/07/14 02:09:23;;;;;;;14.15;8.30;;;;;;;-147.65;100.00;57646.63;10307721;28;20499;-80
2023/07/14 02:14:24;;;;;;;14.70;10.30;;;;;;;-147.65;100.00;57646.63;10308570;28;20054;-80
2023/07/14 02:19:24;;;;;;;12.52;9.43;;;;;;;-147.65;100.00;57646.63;10307840;28;20043;-81
2023/07/14 02:24:26;;;;;;;16.23;10.55;;;;;;;-147.65;100.00;57646.63;10291973;28;20039;-81
2023/07/14 02:29:27;;;;;;;17.60;11.40;;;;;;;-147.65;100.00;57646.63;10326022;28;20053;-80
2023/07/14 02:34:31;;;;;;;18.95;11.88;;;;;;;-147.65;100.00;57646.63;10306887;28;20045;-81
2023/07/14 02:39:37;;;;;;;16.13;10.75;;;;;;;-147.65;100.00;57646.63;10322806;28;20499;-81
2023/07/14 02:44:37;;;;;;;15.38;11.90;;;;;;;-147.65;100.00;57646.63;10306562;28;20049;-80
2023/07/14 02:49:39;;;;;;;18.48;10.65;;;;;;;-147.65;100.00;57646.63;10307900;28;20465;-81
2023/07/14 02:54:40;;;;;;;16.45;10.80;;;;;;;-147.65;100.00;57646.63;10324076;28;20470;-81
2023/07/14 02:59:40;;;;;;;15.93;11.00;;;;;;;-147.65;100.00;57646.63;10324804;28;20038;-80
2023/07/14 03:04:42;;;;;;;16.77;10.90;;;;;;;-147.65;100.00;57646.63;10321953;28;20050;-80
2023/07/14 03:09:43;;;;;;;16.33;10.90;;;;;;;-147.65;100.00;57646.63;10323290;28;20410;-79
2023/07/14 03:14:43;;;;;;;16.10;11.85;;;;;;;-147.65;100.00;57646.63;10305402;28;20042;-83
2023/07/14 03:19:44;;;;;;;16.38;11.48;;;;;;;-147.65;100.00;57646.63;10320589;28;20042;-82
2023/07/14 03:24:45;;;;;;;19.33;10.73;;;;;;;-147.65;100.00;57646.63;10321520;28;20785;-83
2023/07/14 03:29:45;;;;;;;20.73;12.52;;;;;;;-147.65;100.00;57646.63;10329323;28;20121;-84
2023/07/14 03:34:46;;;;;;;17.63;13.52;;;;;;;-147.65;100.00;57646.63;10336407;28;20042;-84
2023/07/14 03:39:46;;;;;;;23.70;13.18;;;;;;;-147.65;100.00;57646.63;10321408;28;20049;-83
2023/07/14 03:44:47;;;;;;;17.58;11.77;;;;;;;-147.65;100.00;57646.63;10320414;28;20042;-83
2023/07/14 03:49:48;;;;;;;15.93;11.18;;;;;;;-147.65;100.00;57646.63;10303835;28;20042;-82
2023/07/14 03:54:48;;;;;;;14.60;11.75;;;;;;;-147.65;100.00;57646.63;10319687;28;20050;-84
2023/07/14 03:59:49;;;;;;;16.38;10.43;;;;;;;-147.65;100.00;57646.63;10324625;28;20053;-83
2023/07/14 04:04:49;;;;;;;13.85;10.02;;;;;;;-147.65;100.00;57646.63;10300634;28;20054;-83
2023/07/14 04:09:50;;;;;;;14.32;10.68;;;;;;;-147.65;100.00;57646.63;10335150;28;20042;-83
2023/07/14 04:14:50;;;;;;;15.63;9.70;;;;;;;-147.65;100.00;57646.63;10279829;28;20050;-83
2023/07/14 04:19:51;;;;;;;14.65;9.27;;;;;;;-147.65;100.00;57646.63;10301776;28;20084;-83
2023/07/14 04:24:52;;;;;;;15.93;8.55;;;;;;;-147.65;100.00;57646.63;10321003;28;20477;-83
2023/07/14 04:29:52;;;;;;;15.40;9.60;;;;;;;-147.65;100.00;57646.63;10340226;28;20056;-84
2023/07/14 04:34:53;;;;;;;15.75;8.90;;;;;;;-147.65;100.00;57646.63;10321396;28;20035;-83
2023/07/14 04:39:53;;;;;;;13.63;8.60;;;;;;;-147.65;100.00;57646.63;10356296;28;20038;-83
2023/07/14 04:44:54;;;;;;;11.85;8.18;;;;;;;-147.65;100.00;57646.63;10308594;28;20038;-83
2023/07/14 04:49:55;;;;;;;9.13;7.93;;;;;;;-147.65;100.00;57646.63;10342274;28;20048;-83
2023/07/14 04:54:55;;;;;;;11.98;6.85;;;;;;;-147.65;100.00;57646.63;10320124;28;20148;-83
2023/07/14 04:59:58;;;;;;;9.98;7.18;;;;;;;-147.65;100.00;57646.63;10336621;28;20035;-83
2023/07/14 05:05:18;;;;;;;10.77;5.95;;;;;;;-147.65;100.00;57646.63;10303363;28;20041;-83
2023/07/14 05:10:20;;;;;;;8.80;5.43;;;;;;;-147.65;100.00;57646.63;10310005;28;20057;-81
2023/07/14 05:15:21;;;;;;;10.20;6.22;;;;;;;-147.65;100.00;57646.63;10321172;28;20046;-83
2023/07/14 05:20:22;;;;;;;8.05;5.57;;;;;;;-147.65;100.00;57646.63;10318541;28;20137;-85
2023/07/14 05:25:23;;;;;;;12.52;4.88;;;;;;;-147.65;100.00;57646.63;10292565;28;20049;-84
2023/07/14 05:30:23;;;;;;;8.20;4.20;;;;;;;-147.65;100.00;57646.63;10277095;28;20383;-83
2023/07/14 05:35:24;;;;;;;5.95;3.58;;;;;;;-147.65;100.00;57646.63;10309410;28;20419;-83
2023/07/14 05:40:25;;;;;;;5.60;4.10;;;;;;;-147.65;100.00;57646.63;10310290;28;20121;-80
2023/07/14 05:45:26;;;;;;;6.50;3.45;;;;;;;-147.65;100.00;57646.63;10324722;28;20046;-80
2023/07/14 05:50:26;;;;;;;7.40;3.20;;;;;;;-147.65;100.00;57646.63;10294613;28;20038;-80
2023/07/14 05:55:27;;;;;;;8.23;2.93;;;;;;;-147.65;100.00;57646.63;10329642;28;20163;-83
2023/07/14 06:00:29;;;;;;;4.53;1.87;;;;;;;-147.65;100.00;57646.63;10289559;28;20046;-83
2023/07/14 06:05:29;;;;;;;8.07;3.88;;;;;;;-147.65;100.00;57646.63;10342802;28;20928;-85
2023/07/14 06:10:30;;;;;;;5.00;3.30;;;;;;;-147.65;100.00;57646.63;10356923;28;20046;-82
2023/07/14 06:15:30;;;;;;;32.23;8.83;;;;;;;-147.65;100.00;57646.63;10330421;28;20394;-80
2023/07/14 06:20:31;;;;;;;7.03;2.80;;;;;;;-147.65;100.00;57646.63;10327477;28;20046;-79
2023/07/14 06:25:33;;;;;;;8.30;2.70;;;;;;;-147.65;100.00;57646.63;10322550;28;20053;-78
2023/07/14 06:30:34;;;;;;;14.23;3.92;;;;;;;-147.65;100.00;57646.63;10304110;28;20129;-80
2023/07/14 06:35:35;;;;;;;8.07;2.25;;;;;;;-147.65;100.00;57646.63;10316528;28;20370;-79
2023/07/14 06:40:36;;;;;;;5.77;2.60;;;;;;;-147.65;100.00;57646.63;10288144;28;20062;-78
2023/07/14 06:45:36;;;;;;;9.93;3.23;;;;;;;-147.65;100.00;57646.63;10356211;28;20042;-78
2023/07/14 06:50:37;;;;;;;9.63;2.70;;;;;;;-147.65;100.00;57646.63;10311616;28;20061;-78
2023/07/14 06:55:38;;;;;;;5.90;2.45;;;;;;;-147.65;100.00;57646.63;10327267;28;20050;-78
2023/07/14 07:00:39;;;;;;;4.97;1.70;;;;;;;-147.65;100.00;57646.63;10288733;28;20372;-78
2023/07/14 07:05:42;;;;;;;7.00;3.08;;;;;;;-147.65;100.00;57646.63;10275900;28;21191;-77
2023/07/14 07:10:43;;;;;;;4.70;2.38;;;;;;;-147.65;100.00;57646.63;10332469;28;20039;-78
2023/07/14 07:15:44;;;;;;;8.77;3.38;;;;;;;-147.65;100.00;57646.63;10309993;28;20449;-80
2023/07/14 07:20:45;;;;;;;4.27;2.60;;;;;;;-147.65;100.00;57646.63;10293343;28;20042;-77
2023/07/14 07:25:49;;;;;;;6.50;3.13;;;;;;;-147.65;100.00;57646.63;10329846;28;20100;-80
2023/07/14 07:30:50;;;;;;;6.85;2.38;;;;;;;-147.65;100.00;57646.63;10322279;28;20047;-79
2023/07/14 07:35:54;;;;;;;4.53;2.23;;;;;;;-147.65;100.00;57646.63;10307043;28;20368;-80
2023/07/14 07:40:55;;;;;;;5.68;2.05;;;;;;;-147.65;100.00;57646.63;10321911;28;20057;-83
2023/07/14 07:45:56;;;;;;;11.63;3.23;;;;;;;-147.65;100.00;57646.63;10280750;28;20042;-91
2023/07/14 07:50:56;;;;;;;7.63;2.90;;;;;;;-147.65;100.00;57646.63;10361705;28;20065;-85
2023/07/14 07:55:57;;;;;;;6.40;3.07;;;;;;;-147.65;100.00;57646.63;10297852;28;20043;-80
2023/07/14 08:01:01;;;;;;;6.78;2.72;;;;;;;-147.65;100.00;57646.63;10288800;28;20439;-80
2023/07/14 08:06:04;;;;;;;6.55;2.80;;;;;;;-147.65;100.00;57646.63;10287731;28;20171;-78
2023/07/14 08:11:09;;;;;;;7.00;2.53;;;;;;;-147.65;100.00;57646.63;10303806;28;20052;-84
2023/07/14 08:16:10;;;;;;;6.70;2.92;;;;;;;-147.65;100.00;57646.63;10245753;28;20722;-79
2023/07/14 08:21:11;;;;;;;9.93;2.92;;;;;;;-147.65;100.00;57646.63;10289966;28;20034;-80
2023/07/14 08:26:12;;;;;;;5.90;2.97;;;;;;;-147.65;100.00;57646.63;10279941;28;20042;-84
2023/07/14 08:31:13;;;;;;;9.27;3.13;;;;;;;-147.65;100.00;57646.63;10299746;28;20069;-82
2023/07/14 08:36:14;;;;;;;10.87;2.80;;;;;;;-147.65;100.00;57646.63;10323587;28;20037;-81
2023/07/14 08:41:30;;;;;;;11.57;3.53;;;;;;;-147.65;100.00;57646.63;10326036;28;20113;-83
2023/07/14 08:46:34;;;;;;;7.15;2.85;;;;;;;-147.65;100.00;57646.63;10330736;28;20046;-85
2023/07/14 08:51:38;;;;;;;5.70;3.30;;;;;;;-147.65;100.00;57646.63;10357380;28;20110;-81
2023/07/14 08:56:38;;;;;;;5.72;2.88;;;;;;;-147.65;100.00;57646.63;10311597;28;20046;-81
2023/07/14 09:01:48;;;;;;;4.90;2.30;;;;;;;-147.65;100.00;57646.63;10277419;28;20043;-81
2023/07/14 09:06:49;;;;;;;8.10;2.38;;;;;;;-147.65;100.00;57646.63;10320726;28;20057;-87
2023/07/14 09:11:50;;;;;;;5.63;2.45;;;;;;;-147.65;100.00;57646.63;10331757;28;20058;-84
2023/07/14 09:16:59;;;;;;;6.47;2.43;;;;;;;-147.65;100.00;57646.63;10316382;28;20050;-85
2023/07/14 09:22:18;;;;;;;8.45;3.42;;;;;;;-147.65;100.00;57646.63;10315514;28;20298;-83
2023/07/14 09:27:23;;;;;;;7.82;2.58;;;;;;;-147.65;100.00;57646.63;10339750;28;20042;-84
2023/07/14 09:32:32;;;;;;;7.40;3.00;;;;;;;-147.65;100.00;57646.63;10319935;28;20042;-79
2023/07/14 09:37:41;;;;;;;6.53;3.40;;;;;;;-147.65;100.00;57646.63;10336306;28;20050;-78
2023/07/14 09:42:42;;;;;;;8.50;3.85;;;;;;;-147.65;100.00;57646.63;10283354;28;20125;-78
2023/07/14 09:47:43;;;;;;;11.82;2.83;;;;;;;-147.65;100.00;57646.63;10330289;28;20045;-80
2023/07/14 09:53:02;;;;;;;6.35;2.25;;;;;;;-147.65;100.00;57646.63;10307888;28;20105;-80
2023/07/14 09:58:03;;;;;;;4.28;2.40;;;;;;;-147.65;100.00;57646.63;10335180;28;20042;-77
2023/07/14 10:03:16;;;;;;;4.45;2.80;;;;;;;-147.65;100.00;57646.63;10324294;28;20061;-80
2023/07/14 10:08:44;;;;;;;6.28;2.25;;;;;;;-147.65;100.00;57646.63;10308180;28;20081;-79
2023/07/14 10:13:52;;;;;;;4.28;1.88;;;;;;;-147.65;100.00;57646.63;10329482;28;20066;-80
2023/07/14 10:18:57;;;;;;;7.05;2.13;;;;;;;-147.65;100.00;57646.63;10333995;28;20049;-81
2023/07/14 10:24:05;;;;;;;5.45;2.53;;;;;;;-147.65;100.00;57646.63;10321796;28;20058;-80
2023/07/14 10:29:07;;;;;;;4.45;1.90;;;;;;;-147.65;100.00;57646.63;10324941;28;20065;-80
2023/07/14 10:34:53;;;;;;;5.78;2.88;;;;;;;-147.65;100.00;57646.63;10309860;28;20062;-79
2023/07/14 10:39:59;;;;;;;5.72;2.92;;;;;;;-147.65;100.00;57646.63;10325033;28;20046;-79
2023/07/14 10:44:59;;;;;;;5.03;2.17;;;;;;;-147.65;100.00;57646.63;10343081;28;20037;-79
2023/07/14 10:50:03;;;;;;;4.20;2.20;;;;;;;-147.65;100.00;57646.63;10350993;28;20116;-79
2023/07/14 10:55:25;;;;;;;3.47;1.80;;;;;;;-147.65;100.00;57646.63;10336889;28;20756;-79
2023/07/14 11:00:47;;;;;;;5.20;2.05;;;;;;;-147.65;100.00;57646.63;10327991;28;20184;-79
2023/07/14 11:05:58;;;;;;;5.90;2.22;;;;;;;-147.65;100.00;57646.63;10293176;28;20038;-80
2023/07/14 11:11:04;;;;;;;5.03;2.47;;;;;;;-147.65;100.00;57646.63;10321632;28;20096;-78
2023/07/14 11:16:08;;;;;;;4.13;2.30;;;;;;;-147.65;100.00;57646.63;10283628;28;20066;-79
2023/07/14 11:21:39;;;;;;;5.05;2.63;;;;;;;-147.65;100.00;57646.63;10304995;28;20121;-80
2023/07/14 11:26:48;;;;;;;2.15;1.60;;;;;;;-147.65;100.00;57646.63;10315627;28;20045;-80
2023/07/14 11:31:55;;;;;;;2.97;1.75;;;;;;;-147.65;100.00;57646.63;10344204;28;20050;-78
2023/07/14 11:37:23;;;;;;;8.00;2.33;;;;;;;-147.65;100.00;57646.63;10347191;28;20066;-78
2023/07/14 11:42:29;;;;;;;4.10;2.03;;;;;;;-147.65;100.00;57646.63;10321401;28;20053;-79
2023/07/14 11:47:37;;;;;;;6.10;3.67;;;;;;;-147.65;100.00;57646.63;10335215;28;20031;-79
2023/07/14 11:52:38;;;;;;;5.38;2.03;;;;;;;-147.65;100.00;57646.63;10319550;28;20514;-79
2023/07/14 11:57:49;;;;;;;3.40;2.30;;;;;;;-147.65;100.00;57646.63;10317122;28;20038;-80
2023/07/14 12:03:02;;;;;;;4.93;2.50;;;;;;;-147.65;100.00;57646.63;10311867;28;20062;-79
2023/07/14 12:08:10;;;;;;;7.43;3.30;;;;;;;-147.65;100.00;57646.63;10345599;28;20392;-83
2023/07/14 12:13:18;;;;;;;5.82;2.78;;;;;;;-147.65;100.00;57646.63;10333199;28;20051;-79
2023/07/14 12:18:35;;;;;;;7.13;2.25;;;;;;;-147.65;100.00;57646.63;10369487;28;20482;-81
2023/07/14 12:23:35;;;;;;;6.05;3.10;;;;;;;-147.65;100.00;57646.63;10262289;28;20049;-81
2023/07/14 12:28:36;;;;;;;7.22;2.70;;;;;;;-147.65;100.00;57646.63;10303049;28;20055;-82
2023/07/14 12:33:37;;;;;;;3.88;2.20;;;;;;;-147.65;100.00;57646.63;10273400;28;20518;-81
2023/07/14 12:38:39;;;;;;;5.57;2.90;;;;;;;-147.65;100.00;57646.63;10268850;28;20490;-81
2023/07/14 12:43:42;;;;;;;5.63;3.10;;;;;;;-147.65;100.00;57646.63;10272620;28;20393;-81
2023/07/14 12:48:43;;;;;;;4.53;2.35;;;;;;;-147.65;100.00;57646.63;10319478;28;20531;-81
2023/07/14 12:53:58;;;;;;;11.85;3.10;;;;;;;-147.65;100.00;57646.63;10294397;28;20125;-81
2023/07/14 12:58:59;;;;;;;4.22;2.33;;;;;;;-147.65;100.00;57646.63;10306444;28;20026;-80
2023/07/14 13:04:03;;;;;;;6.38;3.08;;;;;;;-147.65;100.00;57646.63;10328977;28;22656;-79
2023/07/14 13:09:11;;;;;;;5.65;3.30;;;;;;;-147.65;100.00;57646.63;10311571;28;20031;-77
2023/07/14 13:14:47;;;;;;;5.63;2.63;;;;;;;-147.65;100.00;57646.63;10344279;28;20466;-83
2023/07/14 13:19:48;;;;;;;8.70;2.70;;;;;;;-147.65;100.00;57646.63;10304881;28;20042;-83
2023/07/14 13:24:58;;;;;;;;;;;;;;;-147.65;100.00;57646.63;10332501;28;20050;-81
2023/07/14 13:30:01;;;;;;;5.80;3.33;;;;;;;-147.65;100.00;57646.63;10331145;28;19944;-83
2023/07/14 13:35:05;;;;;;;5.68;2.90;;;;;;;-147.65;100.00;57646.63;10338474;28;20119;-83
2023/07/14 13:40:20;;;;;;;5.97;2.80;;;;;;;-147.65;100.00;57646.63;10325683;28;20498;-79
2023/07/14 13:45:23;;;;;;;6.03;2.53;;;;;;;-147.65;100.00;57646.63;10308483;28;20050;-80
2023/07/14 13:50:24;;;;;;;7.40;2.78;;;;;;;-147.65;100.00;57646.63;10271168;28;20101;-79
2023/07/14 13:55:25;;;;;;;5.80;2.22;;;;;;;-147.65;100.00;57646.63;10270229;28;20442;-80
2023/07/14 14:00:26;;;;;;;4.72;2.53;;;;;;;-147.65;100.00;57646.63;10300160;28;20042;-80
2023/07/14 14:05:31;;;;;;;9.35;3.90;;;;;;;-147.65;100.00;57646.63;10292211;28;20034;-82
2023/07/14 14:10:32;;;;;;;5.70;3.08;;;;;;;-147.65;100.00;57646.63;10278793;28;20511;-81
2023/07/14 14:15:44;;;;;;;5.53;2.50;;;;;;;-147.65;100.00;57646.63;10294294;28;20035;-81
2023/07/14 14:20:44;;;;;;;5.22;2.80;;;;;;;-147.65;100.00;57646.63;10306359;28;20050;-80
2023/07/14 14:25:46;;;;;;;4.27;3.07;;;;;;;-147.65;100.00;57646.63;10325810;28;20395;-79
2023/07/14 14:30:47;;;;;;;;;;;;;;;-147.65;100.00;57646.63;10323111;28;20382;-79
2023/07/14 14:35:47;;;;;;;5.73;2.63;;;;;;;-147.65;100.00;57646.63;10315066;28;19929;-80
2023/07/14 14:40:49;;;;;;;5.53;2.70;;;;;;;-147.65;100.00;57646.63;10263696;28;20042;-81
2023/07/14 14:45:49;;;;;;;;;;;;;;;-147.65;100.00;57646.63;10309835;28;20148;-80
2023/07/14 14:50:51;;;;;;;7.97;3.20;;;;;;;-147.65;100.00;57646.63;10325875;28;19926;-79
2023/07/14 14:56:27;;;;;;;4.60;2.60;;;;;;;-147.65;100.00;57646.63;10356497;28;20545;-79
2023/07/14 15:01:33;;;;;;;7.38;3.03;;;;;;;-147.65;100.00;57646.63;10328654;28;20806;-79
2023/07/14 15:06:34;;;;;;;6.82;2.78;;;;;;;-147.65;100.00;57646.63;10335248;28;20046;-79
2023/07/14 15:11:35;;;;;;;5.37;2.20;;;;;;;-147.65;100.00;57646.63;10317272;28;20038;-79
2023/07/14 15:16:36;;;;;;;6.13;2.45;;;;;;;-147.65;100.00;57646.63;10297951;28;20043;-79
2023/07/14 15:21:36;;;;;;;4.77;2.37;;;;;;;-147.65;100.00;57646.63;10277193;28;20058;-79
2023/07/14 15:26:41;;;;;;;6.23;3.27;;;;;;;-147.65;100.00;57646.63;10334650;28;20044;-80
2023/07/14 15:31:44;;;;;;;4.28;2.08;;;;;;;-147.65;100.00;57646.63;10279561;28;20042;-80
2023/07/14 15:36:45;;;;;;;6.63;2.65;;;;;;;-147.65;100.00;57646.63;10310615;28;20491;-79
2023/07/14 15:41:45;;;;;;;6.07;2.65;;;;;;;-147.65;100.00;57646.63;10311365;28;20051;-80
2023/07/14 15:46:46;;;;;;;5.37;2.60;;;;;;;-147.65;100.00;57646.63;10281659;28;20129;-80
2023/07/14 15:51:46;;;;;;;4.10;1.90;;;;;;;-147.65;100.00;57646.63;10291060;28;20043;-81
2023/07/14 15:56:47;;;;;;;5.53;2.77;;;;;;;-147.65;100.00;57646.63;10322955;28;20046;-81
2023/07/14 16:01:47;;;;;;;3.97;2.03;;;;;;;-147.65;100.00;57646.63;10354414;28;20045;-80
2023/07/14 16:06:49;;;;;;;4.97;3.27;;;;;;;-147.65;100.00;57646.63;10332614;28;20416;-81
2023/07/14 16:11:50;;;;;;;5.45;2.85;;;;;;;-147.65;100.00;57646.63;10342243;28;20061;-80
2023/07/14 16:16:50;;;;;;;3.73;2.37;;;;;;;-147.65;100.00;57646.63;10341776;28;20557;-80
2023/07/14 16:21:51;;;;;;;4.73;2.47;;;;;;;-147.65;100.00;57646.63;10331366;28;20038;-80
2023/07/14 16:26:52;;;;;;;3.00;1.77;;;;;;;-147.65;100.00;57646.63;10286088;28;20517;-80
2023/07/14 16:31:54;;;;;;;5.80;2.28;;;;;;;-147.65;100.00;57646.63;10293484;28;20476;-80
2023/07/14 16:36:55;;;;;;;4.20;2.17;;;;;;;-147.65;100.00;57646.63;10298259;28;20045;-79
2023/07/14 16:41:56;;;;;;;6.03;1.97;;;;;;;-147.65;100.00;57646.63;10295444;28;20122;-79
2023/07/14 16:47:00;;;;;;;7.13;1.87;;;;;;;-147.65;100.00;57646.63;10291757;28;20110;-79
2023/07/14 16:52:01;;;;;;;6.05;2.08;;;;;;;-147.65;100.00;57646.63;10298887;28;20054;-79
2023/07/14 16:57:02;;;;;;;5.60;2.07;;;;;;;-147.65;100.00;57646.63;10297153;28;20042;-77
2023/07/14 17:02:03;;;;;;;8.17;3.13;;;;;;;-147.65;100.00;57646.63;10313047;28;20737;-78
2023/07/14 17:07:03;;;;;;;9.80;2.47;;;;;;;-147.65;100.00;57646.63;10336778;28;20416;-78
2023/07/14 17:12:07;;;;;;;2.37;1.47;;;;;;;-147.65;100.00;57646.63;10329018;28;20038;-78
2023/07/14 17:17:12;;;;;;;7.75;3.38;;;;;;;-147.65;100.00;57646.63;10317374;28;20117;-78
2023/07/14 17:22:13;;;;;;;7.65;2.97;;;;;;;-147.65;100.00;57646.63;10323505;28;20510;-78
2023/07/14 17:27:15;;;;;;;9.43;3.17;;;;;;;-147.65;100.00;57646.63;10315474;28;20455;-78
2023/07/14 17:32:16;;;;;;;5.75;2.25;;;;;;;-147.65;100.00;57646.63;10317711;28;20049;-78
2023/07/14 17:37:21;;;;;;;5.70;2.10;;;;;;;-147.65;100.00;57646.63;10320520;28;20390;-77
2023/07/14 17:42:27;;;;;;;5.50;2.63;;;;;;;-147.65;100.00;57646.63;10316227;28;20050;-78
2023/07/14 17:47:28;;;;;;;7.90;2.10;;;;;;;-147.65;100.00;57646.63;10318009;28;20048;-78
2023/07/14 17:52:28;;;;;;;4.27;2.20;;;;;;;-147.65;100.00;57646.63;10332980;28;20048;-77
2023/07/14 17:57:36;;;;;;;4.87;1.70;;;;;;;-147.65;100.00;57646.63;10314676;28;20037;-77
2023/07/14 18:02:37;;;;;;;3.58;2.75;;;;;;;-147.65;100.00;57646.63;10325745;28;20038;-78
2023/07/14 18:07:37;;;;;;;7.43;2.83;;;;;;;-147.65;100.00;57646.63;10332079;28;20544;-78
2023/07/14 18:12:40;;;;;;;6.43;2.43;;;;;;;-147.65;100.00;57646.63;10327517;28;20050;-76
2023/07/14 18:17:42;;;;;;;12.18;2.28;;;;;;;-147.65;100.00;57646.63;10320342;28;20474;-76
2023/07/14 18:22:50;;;;;;;4.28;1.92;;;;;;;-147.65;100.00;57646.63;10315777;28;20122;-75
2023/07/14 18:27:55;;;;;;;5.78;2.45;;;;;;;-147.65;100.00;57646.63;10329371;28;20042;-76
2023/07/14 18:32:57;;;;;;;8.65;2.63;;;;;;;-147.65;100.00;57646.63;10316018;28;20479;-75
2023/07/14 18:38:00;;;;;;;8.70;2.05;;;;;;;-147.65;100.00;57646.63;10308051;28;20046;-75
2023/07/14 18:43:03;;;;;;;9.65;2.78;;;;;;;-147.65;100.00;57646.63;10321748;28;20043;-75
2023/07/14 18:48:14;;;;;;;4.55;2.50;;;;;;;-147.65;100.00;57646.63;10332744;28;20080;-77
2023/07/14 18:53:19;;;;;;;10.20;2.65;;;;;;;-147.65;100.00;57646.63;10334163;28;20108;-77
2023/07/14 18:58:21;;;;;;;9.02;2.70;;;;;;;-147.65;100.00;57646.63;10313916;28;20077;-77
2023/07/14 19:03:27;;;;;;;4.68;2.50;;;;;;;-147.65;100.00;57646.63;10345922;28;20439;-76
2023/07/14 19:08:28;;;;;;;9.23;3.00;;;;;;;-147.65;100.00;57646.63;10313076;28;20042;-77
2023/07/14 19:13:31;;;;;;;6.33;2.47;;;;;;;-147.65;100.00;57646.63;10323611;28;20128;-76
2023/07/14 19:18:32;;;;;;;5.35;2.47;;;;;;;-147.65;100.00;57646.63;10334950;28;20041;-78
2023/07/14 19:23:33;;;;;;;9.25;2.50;;;;;;;-147.65;100.00;57646.63;10320160;28;20065;-78
2023/07/14 19:28:33;;;;;;;8.52;3.25;;;;;;;-147.65;100.00;57646.63;10311598;28;20037;-78
2023/07/14 19:33:34;;;;;;;4.68;2.22;;;;;;;-147.65;100.00;57646.63;10346890;28;20062;-79
2023/07/14 19:38:34;;;;;;;6.95;2.47;;;;;;;-147.65;100.00;57646.63;10319337;28;20039;-79
2023/07/14 19:43:35;;;;;;;7.13;2.75;;;;;;;-147.65;100.00;57646.63;10325710;28;20038;-79
2023/07/14 19:48:35;;;;;;;7.28;2.53;;;;;;;-147.65;100.00;57646.63;10319027;28;20039;-79
2023/07/14 19:53:36;;;;;;;6.00;2.75;;;;;;;-147.65;100.00;57646.63;10327829;28;20402;-79
2023/07/14 19:58:37;;;;;;;5.35;2.97;;;;;;;-147.65;100.00;57646.63;10326698;28;20053;-79
2023/07/14 20:03:37;;;;;;;7.18;2.78;;;;;;;-147.65;100.00;57646.63;10307707;28;20045;-78
2023/07/14 20:08:42;;;;;;;8.82;3.03;;;;;;;-147.65;100.00;57646.63;10311529;28;20411;-78
2023/07/14 20:13:43;;;;;;;11.70;3.35;;;;;;;-147.65;100.00;57646.63;10278398;28;20483;-78
2023/07/14 20:18:51;;;;;;;5.10;2.53;;;;;;;-147.65;100.00;57646.63;10282332;28;20129;-79
2023/07/14 20:23:51;;;;;;;7.55;2.65;;;;;;;-147.65;100.00;57646.63;10322337;28;20042;-79
2023/07/14 20:28:52;;;;;;;4.03;2.60;;;;;;;-147.65;100.00;57646.63;10315963;28;20049;-77
2023/07/14 20:33:53;;;;;;;12.70;3.17;;;;;;;-147.65;100.00;57646.63;10320388;28;20121;-77
2023/07/14 20:38:55;;;;;;;6.20;2.92;;;;;;;-147.65;100.00;57646.63;10338306;28;20108;-77
2023/07/14 20:43:56;;;;;;;3.80;2.97;;;;;;;-147.65;100.00;57646.63;10349369;28;20045;-77
2023/07/14 20:48:56;;;;;;;6.65;3.60;;;;;;;-147.65;100.00;57646.63;10356789;28;20073;-77
2023/07/14 20:53:57;;;;;;;5.70;2.28;;;;;;;-147.65;100.00;57646.63;10328386;28;20049;-78
2023/07/14 20:58:58;;;;;;;9.55;3.35;;;;;;;-147.65;100.00;57646.63;10345594;28;20037;-78
2023/07/14 21:03:58;;;;;;;7.05;2.92;;;;;;;-147.65;100.00;57646.63;10318195;28;20046;-77
2023/07/14 21:08:59;;;;;;;9.73;3.03;;;;;;;-147.65;100.00;57646.63;10345709;28;20061;-78
2023/07/14 21:13:59;;;;;;;5.40;3.15;;;;;;;-147.65;100.00;57646.63;10302635;28;20541;-78
2023/07/14 21:19:00;;;;;;;4.40;2.67;;;;;;;-147.65;100.00;57646.63;10334658;28;20042;-78
2023/07/14 21:24:01;;;;;;;8.05;3.97;;;;;;;-147.65;100.00;57646.63;10318214;28;20179;-79
2023/07/14 21:29:05;;;;;;;7.10;3.58;;;;;;;-147.65;100.00;57646.63;10328459;28;20540;-78
2023/07/14 21:34:13;;;;;;;6.38;2.97;;;;;;;-147.65;100.00;57646.63;10339185;28;20046;-77
2023/07/14 21:39:15;;;;;;;5.93;3.40;;;;;;;-147.65;100.00;57646.63;10341760;28;20042;-78
2023/07/14 21:44:16;;;;;;;7.90;3.03;;;;;;;-147.65;100.00;57646.63;10335855;28;20043;-77
2023/07/14 21:49:17;;;;;;;10.77;3.95;;;;;;;-147.65;100.00;57646.63;10333960;28;20547;-77
2023/07/14 21:54:19;;;;;;;8.00;3.25;;;;;;;-147.65;100.00;57646.63;10300482;28;20092;-77
2023/07/14 21:59:20;;;;;;;9.80;3.83;;;;;;;-147.65;100.00;57646.63;10355632;28;20050;-77
2023/07/14 22:04:22;;;;;;;6.35;3.67;;;;;;;-147.65;100.00;57646.63;10337571;28;20051;-77
2023/07/14 22:09:25;;;;;;;8.63;3.42;;;;;;;-147.65;100.00;57646.63;10332754;28;20049;-78
2023/07/14 22:14:26;;;;;;;5.30;2.65;;;;;;;-147.65;100.00;57646.63;10327614;28;20046;-78
2023/07/14 22:19:26;;;;;;;7.93;3.15;;;;;;;-147.65;100.00;57646.63;10348411;28;20625;-78
2023/07/14 22:24:27;;;;;;;3.53;2.65;;;;;;;-147.65;100.00;57646.63;10351890;28;20044;-78
2023/07/14 22:29:27;;;;;;;6.90;3.50;;;;;;;-147.65;100.00;57646.63;10335774;28;20030;-77
2023/07/14 22:34:29;;;;;;;8.18;3.60;;;;;;;-147.65;100.00;57646.63;10347831;28;20058;-78
2023/07/14 22:39:29;;;;;;;6.33;3.00;;;;;;;-147.65;100.00;57646.63;10314225;28;20058;-77